Time;durP1;ratioP1;P1;durP2;ratioP2;P2;SDS_P1;SDS_P2;PMS_P1;PMS_P2;Temp;Humidity;BMP_temperature;BMP_pressure;BME280_temperature;BME280_humidity;BME280_pressure;Samples;Min_cycle;Max_cycle;Signal;HPM_P1;HPM_P2
2022/06/15 00:00:04;;;;;;;5.20;1.80;;;;;;;18.63;47.15;100277.41;4364365;32;34953;-80
2022/06/15 00:02:37;;;;;;;6.45;1.65;;;;;;;18.69;47.01;100276.41;4364428;32;34055;-79
2022/06/15 00:05:05;;;;;;;3.12;1.50;;;;;;;18.87;46.54;100282.84;4364436;32;33316;-79
2022/06/15 00:07:33;;;;;;;3.33;1.60;;;;;;;18.69;47.00;100281.13;4351598;32;33845;-79
2022/06/15 00:10:00;;;;;;;3.37;1.50;;;;;;;18.61;47.16;100276.81;4351975;32;33089;-79
2022/06/15 00:12:31;;;;;;;4.72;1.40;;;;;;;18.57;47.11;100283.06;4351972;32;32596;-80
2022/06/15 00:14:59;;;;;;;6.03;1.48;;;;;;;18.47;47.47;100280.09;4364330;32;33882;-79
2022/06/15 00:17:27;;;;;;;6.53;1.67;;;;;;;18.40;47.54;100280.22;4352204;32;32896;-80
2022/06/15 00:19:57;;;;;;;4.68;1.55;;;;;;;18.44;47.53;100278.63;4352249;32;33991;-83
2022/06/15 00:22:28;;;;;;;4.03;1.85;;;;;;;18.39;47.89;100278.53;4351827;32;32354;-80
2022/06/15 00:24:58;;;;;;;3.40;1.50;;;;;;;18.32;48.11;100275.03;4364265;32;33303;-81
2022/06/15 00:27:32;;;;;;;3.37;1.50;;;;;;;18.38;48.02;100280.47;4352482;32;34431;-80
2022/06/15 00:30:07;;;;;;;3.53;1.50;;;;;;;18.30;47.82;100275.28;4363566;32;33966;-81
2022/06/15 00:32:39;;;;;;;3.55;1.70;;;;;;;18.34;47.22;100272.88;4352399;32;34302;-80
2022/06/15 00:35:07;;;;;;;5.07;1.85;;;;;;;18.35;47.51;100271.78;4339403;32;32803;-80
2022/06/15 00:37:40;;;;;;;6.72;2.08;;;;;;;18.36;47.59;100271.53;4363871;32;32112;-80
2022/06/15 00:40:11;;;;;;;4.05;1.50;;;;;;;18.26;47.88;100271.31;4351865;32;34446;-80
2022/06/15 00:42:44;;;;;;;4.53;1.95;;;;;;;18.24;47.88;100272.66;4364065;32;34063;-80
2022/06/15 00:45:15;;;;;;;5.00;1.85;;;;;;;18.25;47.95;100272.41;4351548;32;31690;-81
2022/06/15 00:47:44;;;;;;;4.90;1.65;;;;;;;18.31;47.89;100265.00;4363721;32;33095;-80
2022/06/15 00:50:20;;;;;;;2.83;1.50;;;;;;;18.12;48.47;100269.91;4363871;32;34474;-80
2022/06/15 00:53:05;;;;;;;3.35;1.70;;;;;;;18.17;48.16;100266.41;4363866;32;34803;-81
2022/06/15 00:55:39;;;;;;;3.85;1.70;;;;;;;18.29;47.96;100267.19;4351852;32;33526;-80
2022/06/15 00:58:10;;;;;;;3.97;1.42;;;;;;;18.19;48.26;100270.63;4351452;32;34612;-80
2022/06/15 01:00:39;;;;;;;3.25;1.50;;;;;;;17.94;48.79;100272.84;4363748;32;34540;-80
2022/06/15 01:03:14;;;;;;;2.70;1.48;;;;;;;17.92;48.82;100280.56;4351542;32;34275;-80
2022/06/15 01:05:50;;;;;;;4.28;1.67;;;;;;;18.02;48.35;100281.66;4363292;32;32089;-80
2022/06/15 01:08:34;;;;;;;4.35;1.67;;;;;;;18.03;48.39;100282.50;4351458;32;33568;-80
2022/06/15 01:11:37;;;;;;;4.28;1.87;;;;;;;18.13;47.79;100279.09;4363310;32;34086;-80
2022/06/15 01:14:28;;;;;;;3.25;1.42;;;;;;;17.79;48.66;100281.66;4363461;32;34228;-80
2022/06/15 01:17:05;;;;;;;3.95;1.77;;;;;;;18.03;48.00;100280.56;4351009;32;33144;-80
2022/06/15 01:19:58;;;;;;;3.05;1.30;;;;;;;17.73;48.63;100282.62;4364565;32;34501;-80
2022/06/15 01:22:44;;;;;;;3.70;1.48;;;;;;;17.76;48.53;100287.69;4353344;32;33798;-80
2022/06/15 01:25:27;;;;;;;2.67;1.45;;;;;;;17.76;48.89;100294.09;4353043;32;32835;-81
2022/06/15 01:28:36;;;;;;;3.90;1.42;;;;;;;17.69;49.16;100289.75;4365683;32;33301;-80
2022/06/15 01:31:24;;;;;;;4.57;1.75;;;;;;;17.85;48.63;100285.41;4362957;32;33557;-80
2022/06/15 01:34:12;;;;;;;5.32;1.67;;;;;;;17.76;48.92;100290.47;4353259;32;34571;-80
2022/06/15 01:36:52;;;;;;;4.57;1.60;;;;;;;17.82;48.75;100292.28;4353225;32;32494;-81
2022/06/15 01:39:44;;;;;;;6.03;1.60;;;;;;;17.82;48.98;100294.22;4365523;32;34372;-80
2022/06/15 01:42:21;;;;;;;3.30;1.37;;;;;;;17.75;49.25;100292.41;4353157;32;32243;-80
2022/06/15 01:44:58;;;;;;;3.25;1.70;;;;;;;17.59;49.81;100289.44;4353602;32;34560;-80
2022/06/15 01:47:36;;;;;;;5.07;1.73;;;;;;;17.46;50.31;100296.09;4354756;32;33850;-80
2022/06/15 01:50:13;;;;;;;3.28;1.50;;;;;;;17.70;49.52;100299.75;4353062;32;31897;-80
2022/06/15 01:52:50;;;;;;;3.80;1.75;;;;;;;17.50;49.93;100300.09;4353051;32;32137;-80
2022/06/15 01:55:33;;;;;;;5.00;1.67;;;;;;;17.61;49.54;100292.84;4353563;32;34704;-80
2022/06/15 01:58:08;;;;;;;3.37;1.70;;;;;;;17.49;49.95;100300.34;4365410;32;34619;-80
2022/06/15 02:00:37;;;;;;;;;;;;;;;17.57;49.73;100299.94;4363390;32;33286;-80
2022/06/15 02:03:20;;;;;;;2.67;1.42;;;;;;;17.55;49.71;100302.16;4350559;32;33729;-80
2022/06/15 02:06:11;;;;;;;3.15;1.52;;;;;;;17.54;49.74;100295.75;4350524;32;32784;-80
2022/06/15 02:08:54;;;;;;;3.83;1.77;;;;;;;17.48;49.92;100295.88;4350848;32;34782;-80
2022/06/15 02:11:31;;;;;;;4.43;1.70;;;;;;;17.40;50.09;100300.69;4350419;32;31685;-80
2022/06/15 02:14:10;;;;;;;6.40;1.70;;;;;;;17.52;49.66;100294.31;4350770;32;33471;-81
2022/06/15 02:16:49;;;;;;;2.87;1.33;;;;;;;17.34;50.23;100293.31;4362957;32;35575;-81
2022/06/15 02:19:23;;;;;;;4.18;1.52;;;;;;;17.34;50.20;100290.53;4362612;32;33918;-80
2022/06/15 02:21:54;;;;;;;4.87;1.92;;;;;;;17.43;49.90;100300.19;4350196;32;32837;-80
2022/06/15 02:24:27;;;;;;;3.97;1.90;;;;;;;17.22;50.65;100300.75;4350643;32;34678;-80
2022/06/15 02:26:58;;;;;;;6.70;2.92;;;;;;;17.23;50.64;100299.69;4350618;32;35106;-80
2022/06/15 02:29:32;;;;;;;6.30;3.25;;;;;;;17.21;50.54;100299.06;4362906;32;34539;-80
2022/06/15 02:32:07;;;;;;;8.07;2.78;;;;;;;17.37;49.40;100301.16;4362726;32;34248;-80
2022/06/15 02:34:38;;;;;;;9.60;2.93;;;;;;;17.36;48.92;100304.16;4350502;32;32081;-80
2022/06/15 02:37:07;;;;;;;5.78;2.53;;;;;;;17.31;48.77;100299.34;4350278;32;34409;-80
2022/06/15 02:39:36;;;;;;;4.72;2.12;;;;;;;17.15;48.63;100299.16;4362429;32;33719;-80
2022/06/15 02:42:25;;;;;;;5.68;1.80;;;;;;;17.17;48.21;100294.22;4350423;32;31498;-80
2022/06/15 02:44:59;;;;;;;7.93;2.22;;;;;;;17.00;48.27;100294.91;4350263;32;32224;-80
2022/06/15 02:47:32;;;;;;;2.95;1.60;;;;;;;17.17;47.63;100295.06;4350481;32;34633;-80
2022/06/15 02:50:03;;;;;;;4.00;1.70;;;;;;;17.10;48.07;100297.94;4362732;32;34020;-81
2022/06/15 02:52:39;;;;;;;5.03;1.62;;;;;;;17.07;48.09;100297.56;4362774;32;33345;-80
2022/06/15 02:55:10;;;;;;;5.62;1.70;;;;;;;16.89;48.87;100298.50;4362673;32;33739;-80
2022/06/15 02:57:44;;;;;;;6.30;1.90;;;;;;;16.88;49.18;100301.50;4350419;32;35114;-80
2022/06/15 03:00:19;;;;;;;2.90;1.70;;;;;;;17.11;48.58;100293.25;4350291;32;34819;-80
2022/06/15 03:02:53;;;;;;;3.35;1.55;;;;;;;17.06;48.65;100305.06;4362364;32;33553;-80
2022/06/15 03:05:27;;;;;;;3.37;1.60;;;;;;;17.13;48.16;100304.94;4350250;32;33884;-80
2022/06/15 03:07:59;;;;;;;3.42;1.75;;;;;;;17.10;47.87;100309.03;4338364;32;34706;-80
2022/06/15 03:10:30;;;;;;;4.47;1.73;;;;;;;17.01;48.07;100309.62;4362092;32;33588;-80
2022/06/15 03:12:57;;;;;;;4.00;1.70;;;;;;;16.99;48.67;100309.84;4350125;32;33127;-80
2022/06/15 03:15:34;;;;;;;6.25;1.50;;;;;;;16.96;49.08;100310.31;4350367;32;32836;-82
2022/06/15 03:18:02;;;;;;;7.82;1.73;;;;;;;17.07;49.07;100312.28;4362226;32;35367;-80
2022/06/15 03:20:34;;;;;;;4.80;1.45;;;;;;;17.11;48.08;100310.72;4350079;32;33818;-80
2022/06/15 03:23:09;;;;;;;3.47;1.77;;;;;;;17.15;48.44;100316.66;4362495;32;33500;-81
2022/06/15 03:25:37;;;;;;;4.78;1.50;;;;;;;17.15;48.69;100318.59;4350199;32;33755;-80
2022/06/15 03:28:10;;;;;;;4.55;1.50;;;;;;;16.94;49.02;100311.63;4362409;32;33853;-80
2022/06/15 03:30:38;;;;;;;4.68;1.60;;;;;;;17.06;48.82;100315.28;4349949;32;32563;-80
2022/06/15 03:33:10;;;;;;;3.12;1.60;;;;;;;17.15;48.10;100322.19;4362028;32;33533;-80
2022/06/15 03:35:42;;;;;;;4.00;1.80;;;;;;;17.07;48.10;100317.00;4338217;32;33626;-80
2022/06/15 03:38:13;;;;;;;3.75;1.60;;;;;;;17.02;48.42;100314.94;4350339;32;35430;-81
2022/06/15 03:40:47;;;;;;;4.28;1.90;;;;;;;17.09;48.28;100312.91;4350072;32;34806;-80
2022/06/15 03:43:20;;;;;;;4.80;2.00;;;;;;;17.01;48.78;100313.22;4337359;32;32301;-80
2022/06/15 03:45:49;;;;;;;2.65;1.50;;;;;;;17.11;48.77;100309.88;4362339;32;34566;-82
2022/06/15 03:48:20;;;;;;;4.05;1.60;;;;;;;17.18;48.99;100307.87;4349910;32;35335;-80
2022/06/15 03:50:54;;;;;;;3.37;1.60;;;;;;;17.23;49.18;100313.53;4349856;32;34568;-80
2022/06/15 03:53:25;;;;;;;5.53;1.60;;;;;;;17.20;48.68;100316.78;4362141;32;33404;-80
2022/06/15 03:55:59;;;;;;;3.00;1.60;;;;;;;17.31;48.14;100312.34;4337916;32;33130;-80
2022/06/15 03:58:30;;;;;;;3.10;1.40;;;;;;;17.31;47.86;100313.22;4362131;32;34327;-80
2022/06/15 04:01:02;;;;;;;5.37;1.80;;;;;;;17.17;48.25;100316.41;4352149;32;32425;-82
2022/06/15 04:03:33;;;;;;;4.18;1.87;;;;;;;17.29;47.82;100317.31;4352081;32;32411;-80
2022/06/15 04:06:07;;;;;;;9.52;1.70;;;;;;;17.18;48.39;100330.06;4340252;32;32741;-79
2022/06/15 04:08:42;;;;;;;3.35;1.42;;;;;;;17.31;48.50;100317.91;4352143;32;34023;-78
2022/06/15 04:14:10;;;;;;;3.95;1.77;;;;;;;17.50;47.13;100322.28;4367067;32;32073;-77
2022/06/15 04:16:38;;;;;;;3.85;1.33;;;;;;;17.51;47.33;100318.44;4374450;32;33818;-79
2022/06/15 04:19:14;;;;;;;5.22;1.75;;;;;;;17.63;47.11;100315.66;4366923;32;34058;-78
2022/06/15 04:21:49;;;;;;;3.45;1.67;;;;;;;17.69;46.96;100321.13;4356533;32;33412;-79
2022/06/15 04:24:26;;;;;;;3.53;1.65;;;;;;;17.67;47.31;100326.06;4352284;32;33612;-80
2022/06/15 04:26:57;;;;;;;3.75;1.42;;;;;;;17.84;46.62;100319.81;4364523;32;33718;-80
2022/06/15 04:29:29;;;;;;;3.10;1.73;;;;;;;17.89;46.39;100318.00;4339892;32;32901;-80
2022/06/15 04:31:59;;;;;;;8.02;1.90;;;;;;;17.61;48.03;100323.38;4351690;32;33634;-80
2022/06/15 04:34:30;;;;;;;3.37;1.75;;;;;;;18.00;46.87;100328.25;4364793;32;34294;-79
2022/06/15 04:36:59;;;;;;;5.82;1.90;;;;;;;18.14;46.23;100319.69;4364325;32;33760;-80
2022/06/15 04:39:28;;;;;;;5.43;1.62;;;;;;;18.12;46.20;100319.06;4351855;32;33812;-76
2022/06/15 04:41:57;;;;;;;6.07;2.03;;;;;;;18.21;46.08;100318.44;4363859;32;32854;-80
2022/06/15 04:44:25;;;;;;;5.37;2.00;;;;;;;18.23;46.11;100319.03;4363921;32;34476;-78
2022/06/15 04:46:57;;;;;;;3.28;1.60;;;;;;;18.24;46.29;100322.66;4364164;32;34426;-79
2022/06/15 04:49:25;;;;;;;4.10;1.70;;;;;;;18.27;45.97;100320.25;4352194;32;34203;-78
2022/06/15 04:51:56;;;;;;;4.55;1.62;;;;;;;18.35;45.97;100325.41;4377574;32;34872;-78
2022/06/15 04:54:25;;;;;;;4.45;2.00;;;;;;;18.48;46.09;100317.91;4365527;32;34157;-78
2022/06/15 04:56:54;;;;;;;5.15;1.60;;;;;;;18.43;46.61;100326.97;4354063;32;34008;-76
2022/06/15 04:59:24;;;;;;;5.05;2.25;;;;;;;18.58;46.54;100324.53;4363179;32;34602;-76
2022/06/15 05:01:52;;;;;;;9.70;2.00;;;;;;;18.59;46.63;100320.66;4350875;32;33423;-76
2022/06/15 05:04:20;;;;;;;3.53;1.87;;;;;;;18.72;46.44;100325.97;4338872;32;33066;-75
2022/06/15 05:06:50;;;;;;;3.92;1.50;;;;;;;18.83;46.10;100327.03;4363054;32;34563;-75
2022/06/15 05:09:18;;;;;;;5.78;1.90;;;;;;;18.88;46.26;100326.25;4363368;32;35388;-75
2022/06/15 05:11:48;;;;;;;6.97;1.80;;;;;;;18.89;46.47;100331.56;4361956;32;33950;-75
2022/06/15 05:14:16;;;;;;;3.72;1.50;;;;;;;18.99;46.76;100331.78;4361180;32;34077;-75
2022/06/15 05:16:44;;;;;;;4.50;1.90;;;;;;;19.01;46.73;100334.31;4361010;32;33955;-75
2022/06/15 05:19:17;;;;;;;6.07;1.90;;;;;;;19.04;46.38;100326.31;4362059;32;34457;-75
2022/06/15 05:21:47;;;;;;;4.75;1.73;;;;;;;19.14;46.29;100327.59;4362210;32;33989;-75
2022/06/15 05:24:16;;;;;;;3.62;1.52;;;;;;;19.20;46.15;100321.03;4350041;32;33279;-75
2022/06/15 05:26:44;;;;;;;3.50;1.60;;;;;;;19.25;45.98;100329.47;4362449;32;34673;-75
2022/06/15 05:29:11;;;;;;;5.62;2.12;;;;;;;19.31;45.86;100329.31;4363302;32;34284;-76
2022/06/15 05:31:43;;;;;;;4.00;1.90;;;;;;;19.46;45.78;100325.97;4364305;32;33940;-76
2022/06/15 05:34:12;;;;;;;5.25;2.05;;;;;;;19.56;46.83;100326.16;4350917;32;31915;-75
2022/06/15 05:36:44;;;;;;;7.05;2.08;;;;;;;19.63;47.60;100329.59;4363253;32;33917;-75
2022/06/15 05:39:13;;;;;;;4.05;1.80;;;;;;;19.84;47.11;100335.53;4363186;32;35151;-75
2022/06/15 05:41:41;;;;;;;4.65;2.08;;;;;;;19.87;47.25;100326.66;4363221;32;34782;-76
2022/06/15 05:47:00;;;;;;;5.80;2.00;;;;;;;20.02;45.54;100330.53;4363118;32;33936;-76
2022/06/15 05:49:28;;;;;;;6.62;1.90;;;;;;;20.14;45.78;100324.00;4350627;32;32863;-76
2022/06/15 05:51:56;;;;;;;3.75;1.80;;;;;;;20.23;45.44;100336.38;4362578;32;33906;-75
2022/06/15 05:54:25;;;;;;;5.32;1.70;;;;;;;20.30;46.18;100337.88;4362797;32;34270;-75
2022/06/15 05:56:52;;;;;;;4.15;1.50;;;;;;;20.43;44.45;100341.44;4363991;32;33829;-75
2022/06/15 05:59:20;;;;;;;7.93;1.70;;;;;;;20.12;43.71;100335.41;4362223;32;35259;-76
2022/06/15 06:01:47;;;;;;;5.28;1.70;;;;;;;20.31;44.45;100333.16;4350284;32;32580;-76
2022/06/15 06:04:18;;;;;;;4.10;1.73;;;;;;;20.54;43.34;100332.94;4363602;32;33356;-76
2022/06/15 06:06:50;;;;;;;4.45;1.77;;;;;;;20.65;43.44;100323.62;4362111;32;33554;-76
2022/06/15 06:09:18;;;;;;;5.93;1.65;;;;;;;20.77;42.92;100333.81;4362427;32;34078;-76
2022/06/15 06:11:45;;;;;;;4.00;1.60;;;;;;;20.77;42.09;100336.59;4362084;32;33895;-76
2022/06/15 06:14:16;;;;;;;3.62;1.83;;;;;;;20.77;42.81;100333.81;4362546;32;33731;-76
2022/06/15 06:16:44;;;;;;;8.55;1.80;;;;;;;20.85;40.55;100341.69;4362442;32;34207;-76
2022/06/15 06:19:12;;;;;;;3.20;1.67;;;;;;;21.07;39.91;100342.50;4356279;32;35109;-75
2022/06/15 06:21:40;;;;;;;4.18;1.70;;;;;;;21.24;39.32;100342.44;4363524;32;33820;-76
2022/06/15 06:24:09;;;;;;;6.18;1.90;;;;;;;21.19;39.60;100345.16;4350219;32;33169;-75
2022/06/15 06:26:37;;;;;;;3.40;1.45;;;;;;;21.33;39.33;100346.44;4362328;32;33408;-76
2022/06/15 06:29:05;;;;;;;6.97;1.77;;;;;;;21.41;39.10;100339.53;4362372;32;34306;-76
2022/06/15 06:31:36;;;;;;;4.62;1.80;;;;;;;21.45;40.82;100337.91;4362377;32;34714;-76
2022/06/15 06:34:03;;;;;;;4.00;1.30;;;;;;;21.64;39.11;100342.81;4350026;32;32776;-75
2022/06/15 06:36:33;;;;;;;3.65;1.60;;;;;;;21.73;37.14;100345.13;4362303;32;34759;-76
2022/06/15 06:39:12;;;;;;;6.45;1.42;;;;;;;21.75;37.19;100340.97;4362142;32;34524;-75
2022/06/15 06:41:45;;;;;;;5.75;1.45;;;;;;;21.84;38.13;100344.94;4362320;32;34898;-76
2022/06/15 06:44:13;;;;;;;4.45;1.50;;;;;;;21.94;37.46;100352.56;4350115;32;32573;-76
2022/06/15 06:46:43;;;;;;;3.47;1.55;;;;;;;21.78;37.12;100342.37;4361872;32;33610;-76
2022/06/15 06:49:12;;;;;;;9.75;1.90;;;;;;;21.93;37.03;100342.50;4362212;32;34377;-76
2022/06/15 06:51:42;;;;;;;4.30;1.35;;;;;;;22.06;36.59;100347.66;4362348;32;33815;-76
2022/06/15 06:54:12;;;;;;;3.85;1.45;;;;;;;22.38;36.32;100341.13;4363920;32;33554;-75
2022/06/15 06:56:42;;;;;;;6.43;1.45;;;;;;;22.40;35.80;100344.50;4353988;32;33603;-76
2022/06/15 06:59:12;;;;;;;4.25;1.60;;;;;;;22.46;36.82;100349.00;4357815;32;35129;-76
2022/06/15 07:01:42;;;;;;;3.50;1.45;;;;;;;22.40;37.29;100350.94;4368804;32;34484;-76
2022/06/15 07:04:11;;;;;;;3.12;1.33;;;;;;;22.47;36.74;100347.91;4369991;32;33438;-76
2022/06/15 07:06:43;;;;;;;6.03;2.05;;;;;;;22.60;36.62;100351.06;4366681;32;34709;-76
2022/06/15 07:09:12;;;;;;;7.47;1.70;;;;;;;22.59;37.19;100354.12;4378588;32;34497;-80
2022/06/15 07:11:42;;;;;;;8.13;1.73;;;;;;;22.77;35.24;100349.97;4354254;32;33599;-80
2022/06/15 07:14:12;;;;;;;5.12;2.00;;;;;;;22.84;35.02;100345.84;4370039;32;33627;-80
2022/06/15 07:16:41;;;;;;;5.53;1.73;;;;;;;22.98;34.91;100354.59;4368108;32;33845;-80
2022/06/15 07:19:10;;;;;;;4.87;1.75;;;;;;;22.90;35.15;100363.50;4370029;32;35204;-80
2022/06/15 07:21:38;;;;;;;4.03;1.70;;;;;;;22.99;34.66;100353.47;4356050;32;33780;-80
2022/06/15 07:24:10;;;;;;;4.87;1.60;;;;;;;23.21;35.56;100348.50;4370811;32;33496;-80
2022/06/15 07:26:42;;;;;;;3.62;1.73;;;;;;;23.19;35.74;100359.13;4355665;32;32293;-80
2022/06/15 07:29:17;;;;;;;3.62;1.30;;;;;;;23.07;34.87;100357.69;4363823;32;33891;-79
2022/06/15 07:31:51;;;;;;;3.90;1.80;;;;;;;23.21;34.64;100354.09;4358055;32;33471;-80
2022/06/15 07:34:23;;;;;;;4.05;1.90;;;;;;;23.36;34.80;100349.66;4368437;32;33415;-82
2022/06/15 07:36:54;;;;;;;3.08;1.50;;;;;;;23.43;35.72;100353.00;4356072;32;34701;-81
2022/06/15 07:39:30;;;;;;;4.30;1.90;;;;;;;23.47;35.41;100354.12;4368677;32;35652;-81
2022/06/15 07:42:02;;;;;;;4.28;1.80;;;;;;;23.62;33.76;100356.97;4352659;32;32978;-81
2022/06/15 07:44:38;;;;;;;4.60;1.60;;;;;;;23.61;33.96;100352.50;4352458;32;32096;-81
2022/06/15 07:49:59;;;;;;;2.92;1.60;;;;;;;23.71;34.73;100349.69;4378135;32;34318;-81
2022/06/15 07:52:52;;;;;;;5.70;1.62;;;;;;;23.66;34.09;100349.69;4363904;32;32488;-79
2022/06/15 07:55:31;;;;;;;5.30;1.70;;;;;;;23.55;33.77;100354.44;4352318;32;33799;-80
2022/06/15 07:58:00;;;;;;;4.68;1.80;;;;;;;23.69;32.43;100348.31;4364584;32;33683;-80
2022/06/15 08:00:31;;;;;;;5.07;1.70;;;;;;;23.78;33.06;100352.22;4364786;32;34480;-81
2022/06/15 08:03:05;;;;;;;3.67;1.67;;;;;;;23.93;33.12;100346.63;4364644;32;34883;-81
2022/06/15 08:05:37;;;;;;;4.93;1.62;;;;;;;23.83;31.96;100341.03;4364517;32;33623;-80
2022/06/15 08:08:11;;;;;;;5.03;1.70;;;;;;;23.99;31.91;100337.09;4352743;32;33811;-81
2022/06/15 08:10:43;;;;;;;5.32;1.80;;;;;;;24.10;32.20;100335.94;4364373;32;34236;-80
2022/06/15 08:13:17;;;;;;;4.18;2.00;;;;;;;24.14;31.10;100336.19;4352858;32;34013;-81
2022/06/15 08:15:47;;;;;;;7.80;2.00;;;;;;;24.37;31.68;100332.81;4364423;32;34542;-81
2022/06/15 08:18:22;;;;;;;4.72;2.28;;;;;;;24.38;32.05;100340.12;4364281;32;33391;-80
2022/06/15 08:20:57;;;;;;;5.55;1.52;;;;;;;24.41;30.75;100335.91;4364317;32;35290;-81
2022/06/15 08:23:31;;;;;;;3.08;1.50;;;;;;;24.35;30.35;100332.28;4364032;32;33499;-81
2022/06/15 08:26:08;;;;;;;3.95;1.62;;;;;;;24.74;30.03;100337.19;4364259;32;34417;-80
2022/06/15 08:28:45;;;;;;;4.45;1.60;;;;;;;24.58;30.71;100331.66;4364939;32;33643;-80
2022/06/15 08:31:16;;;;;;;5.20;1.80;;;;;;;24.75;30.88;100336.03;4353654;32;33779;-80
2022/06/15 08:33:52;;;;;;;5.47;1.60;;;;;;;24.69;30.19;100335.25;4366248;32;34556;-81
2022/06/15 08:36:24;;;;;;;7.05;1.60;;;;;;;24.85;30.01;100334.03;4365608;32;34273;-80
2022/06/15 08:38:58;;;;;;;5.20;1.58;;;;;;;24.99;30.80;100341.87;4365236;32;32392;-81
2022/06/15 08:41:50;;;;;;;3.33;1.60;;;;;;;25.04;32.09;100333.44;4365901;32;34354;-81
2022/06/15 08:44:47;;;;;;;3.92;1.67;;;;;;;24.94;30.31;100328.66;4366251;32;34756;-80
2022/06/15 08:47:28;;;;;;;3.58;1.50;;;;;;;25.10;31.15;100330.31;4356590;32;34421;-80
2022/06/15 08:50:21;;;;;;;4.18;1.55;;;;;;;25.26;30.56;100331.06;4353791;32;33731;-81
2022/06/15 08:53:05;;;;;;;4.75;1.87;;;;;;;25.35;30.40;100325.66;4365764;32;35232;-81
2022/06/15 08:55:45;;;;;;;5.78;1.90;;;;;;;25.25;30.87;100335.00;4354085;32;34299;-80
2022/06/15 08:58:46;;;;;;;5.40;1.70;;;;;;;25.36;30.10;100327.31;4365572;32;33015;-80
2022/06/15 09:01:30;;;;;;;5.28;1.70;;;;;;;25.41;30.59;100324.47;4362502;32;32294;-80
2022/06/15 09:04:13;;;;;;;5.75;1.67;;;;;;;25.56;29.84;100324.34;4363076;32;34019;-81
2022/06/15 09:06:59;;;;;;;4.60;1.62;;;;;;;25.71;30.18;100326.25;4362952;32;34054;-80
2022/06/15 09:09:42;;;;;;;4.93;2.20;;;;;;;25.60;29.52;100326.28;4362832;32;33550;-81
2022/06/15 09:12:53;;;;;;;5.75;1.75;;;;;;;25.81;28.64;100326.16;4362705;32;34489;-81
2022/06/15 09:15:51;;;;;;;3.12;1.50;;;;;;;26.09;28.93;100327.28;4362722;32;34802;-81
2022/06/15 09:18:41;;;;;;;6.85;1.87;;;;;;;26.23;28.98;100325.47;4350484;32;34266;-81
2022/06/15 09:21:18;;;;;;;8.88;1.92;;;;;;;26.41;28.73;100324.72;4350621;32;32998;-80
2022/06/15 09:24:03;;;;;;;4.40;1.73;;;;;;;26.29;27.96;100318.63;4362974;32;32412;-81
2022/06/15 09:26:43;;;;;;;7.72;2.05;;;;;;;26.32;28.02;100317.25;4363015;32;34493;-81
2022/06/15 09:29:37;;;;;;;5.80;1.85;;;;;;;26.56;28.61;100309.66;4362964;32;33797;-82
2022/06/15 09:32:18;;;;;;;7.90;2.00;;;;;;;26.84;28.59;100307.84;4348390;32;33486;-81
2022/06/15 09:35:18;;;;;;;7.32;2.40;;;;;;;27.02;28.73;100307.09;4362953;32;33307;-82
2022/06/15 09:37:57;;;;;;;6.87;2.45;;;;;;;27.17;29.18;100309.69;4350824;32;33396;-82
2022/06/15 09:40:42;;;;;;;6.32;2.10;;;;;;;27.27;29.44;100314.34;4362228;32;34291;-82
2022/06/15 09:43:38;;;;;;;4.93;1.80;;;;;;;27.37;27.04;100314.16;4362844;32;32152;-82
2022/06/15 09:46:15;;;;;;;8.52;1.98;;;;;;;27.57;26.84;100304.53;4349997;32;33610;-82
2022/06/15 09:49:05;;;;;;;4.30;1.77;;;;;;;27.61;26.29;100307.63;4362792;32;34898;-81
2022/06/15 09:51:45;;;;;;;4.62;1.75;;;;;;;27.29;25.97;100305.59;4350714;32;33757;-82
2022/06/15 09:54:21;;;;;;;5.30;1.70;;;;;;;27.68;26.30;100302.44;4350908;32;32837;-81
2022/06/15 09:56:54;;;;;;;5.68;1.95;;;;;;;27.51;25.20;100305.78;4350558;32;33558;-81
2022/06/15 09:59:24;;;;;;;5.85;1.80;;;;;;;28.08;25.05;100298.88;4350918;32;34169;-82
2022/06/15 10:01:52;;;;;;;4.25;1.75;;;;;;;28.13;25.00;100297.94;4365472;32;34744;-81
2022/06/15 10:04:28;;;;;;;6.10;1.92;;;;;;;28.40;25.48;100285.88;4365261;32;32656;-81
2022/06/15 10:07:34;;;;;;;5.00;1.90;;;;;;;28.10;25.59;100292.91;4365123;32;33248;-82
2022/06/15 10:10:43;;;;;;;4.65;1.62;;;;;;;28.61;25.39;100283.44;4353237;32;34323;-81
2022/06/15 10:13:17;;;;;;;3.42;1.45;;;;;;;28.61;25.79;100275.81;4352665;32;33632;-82
2022/06/15 10:15:52;;;;;;;5.82;1.70;;;;;;;28.68;25.35;100267.75;4365706;32;33204;-82
2022/06/15 10:18:35;;;;;;;4.40;1.83;;;;;;;28.92;25.83;100278.00;4353051;32;34525;-81
2022/06/15 10:21:08;;;;;;;6.35;2.47;;;;;;;29.19;25.48;100269.47;4353068;32;34523;-81
2022/06/15 10:23:56;;;;;;;5.68;1.80;;;;;;;29.30;25.04;100270.03;4353540;32;34652;-81
2022/06/15 10:26:40;;;;;;;5.43;1.75;;;;;;;28.85;23.03;100270.78;4352866;32;32986;-81
2022/06/15 10:29:14;;;;;;;4.18;1.62;;;;;;;29.49;23.87;100268.75;4365329;32;34527;-81
2022/06/15 10:32:08;;;;;;;6.82;2.15;;;;;;;29.43;22.82;100270.03;4352769;32;33731;-81
2022/06/15 10:34:46;;;;;;;5.40;1.90;;;;;;;29.67;22.48;100264.06;4365485;32;34076;-81
2022/06/15 10:37:33;;;;;;;5.32;1.77;;;;;;;29.95;24.44;100263.87;4352674;32;31638;-82
2022/06/15 10:40:27;;;;;;;5.72;1.90;;;;;;;29.70;22.94;100260.56;4365046;32;33632;-82
2022/06/15 10:43:21;;;;;;;4.97;1.73;;;;;;;29.78;22.32;100258.97;4378909;32;34440;-82
2022/06/15 10:45:58;;;;;;;4.25;1.50;;;;;;;29.94;22.88;100259.38;4352432;32;33359;-82
2022/06/15 10:48:37;;;;;;;2.83;1.23;;;;;;;30.00;23.10;100249.63;4353926;32;34108;-81
2022/06/15 10:51:11;;;;;;;4.22;1.67;;;;;;;30.09;22.51;100248.50;4352707;32;32457;-81
2022/06/15 10:53:54;;;;;;;3.72;1.58;;;;;;;30.26;23.06;100259.06;4353167;32;34502;-81
2022/06/15 11:02:31;;;;;;;3.17;1.48;;;;;;;30.47;21.66;100240.34;4378534;32;33960;-81
2022/06/15 11:05:06;;;;;;;3.60;1.60;;;;;;;30.44;21.52;100243.00;4352646;32;33437;-82
2022/06/15 11:07:56;;;;;;;4.00;1.30;;;;;;;30.81;22.37;100241.59;4365059;32;34428;-81
2022/06/15 11:10:34;;;;;;;4.72;1.55;;;;;;;31.01;22.85;100237.28;4365013;32;34291;-82
2022/06/15 11:13:17;;;;;;;3.30;1.45;;;;;;;31.19;21.65;100229.66;4364833;32;33987;-81
2022/06/15 11:18:44;;;;;;;3.58;1.30;;;;;;;30.75;23.46;100231.56;4367042;32;34261;-81
2022/06/15 11:21:24;;;;;;;2.53;1.20;;;;;;;30.95;20.76;100224.44;4365137;32;34142;-82
2022/06/15 11:24:00;;;;;;;4.28;1.40;;;;;;;30.88;20.91;100229.78;4352612;32;34520;-81
2022/06/15 11:27:07;;;;;;;4.65;1.40;;;;;;;30.89;22.67;100220.94;4352711;32;34629;-81
2022/06/15 11:29:58;;;;;;;2.85;1.20;;;;;;;31.33;22.15;100222.63;4364638;32;34006;-81
2022/06/15 11:32:38;;;;;;;3.47;1.40;;;;;;;31.33;21.28;100214.13;4352683;32;33372;-82
2022/06/15 11:35:12;;;;;;;3.37;1.40;;;;;;;31.69;21.90;100219.44;4364762;32;33849;-82
2022/06/15 11:37:57;;;;;;;2.47;1.10;;;;;;;31.84;22.05;100203.06;4364819;32;34392;-81
2022/06/15 11:40:35;;;;;;;5.75;1.45;;;;;;;31.90;21.26;100199.66;4352319;32;32669;-82
2022/06/15 11:43:13;;;;;;;6.28;1.90;;;;;;;31.49;19.66;100205.09;4352879;32;33450;-81
2022/06/15 11:46:00;;;;;;;4.35;1.52;;;;;;;31.74;21.33;100209.94;4352257;32;34092;-81
2022/06/15 11:49:02;;;;;;;3.05;1.37;;;;;;;31.74;22.03;100210.75;4365063;32;34564;-81
2022/06/15 11:52:00;;;;;;;5.80;1.87;;;;;;;31.59;20.60;100199.06;4364682;32;33867;-81
2022/06/15 11:55:07;;;;;;;6.37;1.55;;;;;;;31.54;21.54;100194.41;4352355;32;31941;-82
2022/06/15 11:57:49;;;;;;;3.92;1.48;;;;;;;31.72;21.59;100204.59;4358025;32;206211;-81
2022/06/15 12:00:22;;;;;;;3.78;1.33;;;;;;;31.70;20.48;100198.41;4364660;32;35335;-81
2022/06/15 12:02:56;;;;;;;3.85;1.20;;;;;;;31.95;21.17;100199.47;4351597;32;34775;-81
2022/06/15 12:05:30;;;;;;;2.47;1.35;;;;;;;31.51;19.72;100192.25;4364506;32;34349;-81
2022/06/15 12:08:21;;;;;;;3.70;1.33;;;;;;;31.85;20.94;100187.69;4364287;32;32257;-81
2022/06/15 12:10:56;;;;;;;5.20;1.30;;;;;;;31.61;19.46;100185.38;4364077;32;33958;-81
2022/06/15 12:13:39;;;;;;;3.67;1.10;;;;;;;31.81;19.74;100189.53;4352117;32;33415;-82
2022/06/15 12:16:18;;;;;;;3.58;1.40;;;;;;;31.99;20.82;100188.28;4351954;32;32512;-81
2022/06/15 12:18:49;;;;;;;4.18;1.27;;;;;;;32.10;20.29;100179.03;4351940;32;32238;-81
2022/06/15 12:21:17;;;;;;;2.40;1.10;;;;;;;32.31;20.87;100184.00;4352068;32;34577;-81